sensor_id;sensor_type;location;lat;lon;timestamp;P1;durP1;ratioP1;P2;durP2;ratioP2
22963;SDS011;11648;49.306;6.934;2023-06-22T00:01:21;8.23;;;7.23;;
22963;SDS011;11648;49.306;6.934;2023-06-22T00:03:49;12.83;;;7.90;;
22963;SDS011;11648;49.306;6.934;2023-06-22T00:06:16;10.17;;;7.67;;
22963;SDS011;11648;49.306;6.934;2023-06-22T00:08:43;9.17;;;7.83;;
22963;SDS011;11648;49.306;6.934;2023-06-22T00:11:09;10.47;;;8.33;;
22963;SDS011;11648;49.306;6.934;2023-06-22T00:13:37;9.63;;;8.10;;
22963;SDS011;11648;49.306;6.934;2023-06-22T00:16:04;9.53;;;8.00;;
22963;SDS011;11648;49.306;6.934;2023-06-22T00:18:30;10.07;;;8.10;;
22963;SDS011;11648;49.306;6.934;2023-06-22T00:20:59;10.17;;;8.03;;
22963;SDS011;11648;49.306;6.934;2023-06-22T00:23:26;9.40;;;8.33;;
22963;SDS011;11648;49.306;6.934;2023-06-22T00:25:53;10.53;;;8.73;;
22963;SDS011;11648;49.306;6.934;2023-06-22T00:28:19;10.17;;;8.50;;
22963;SDS011;11648;49.306;6.934;2023-06-22T00:30:48;9.57;;;7.83;;
22963;SDS011;11648;49.306;6.934;2023-06-22T00:33:15;8.63;;;7.00;;
22963;SDS011;11648;49.306;6.934;2023-06-22T00:35:43;9.07;;;7.53;;
22963;SDS011;11648;49.306;6.934;2023-06-22T00:38:09;10.37;;;7.87;;
22963;SDS011;11648;49.306;6.934;2023-06-22T00:40:36;9.27;;;7.67;;
22963;SDS011;11648;49.306;6.934;2023-06-22T00:43:03;10.80;;;7.10;;
22963;SDS011;11648;49.306;6.934;2023-06-22T00:45:31;9.07;;;8.10;;
22963;SDS011;11648;49.306;6.934;2023-06-22T00:47:58;10.47;;;8.30;;
22963;SDS011;11648;49.306;6.934;2023-06-22T00:50:26;9.53;;;8.00;;
22963;SDS011;11648;49.306;6.934;2023-06-22T00:53:07;9.67;;;7.27;;
22963;SDS011;11648;49.306;6.934;2023-06-22T00:55:38;9.20;;;8.03;;
22963;SDS011;11648;49.306;6.934;2023-06-22T00:58:09;9.20;;;8.30;;
22963;SDS011;11648;49.306;6.934;2023-06-22T01:00:38;9.13;;;7.97;;
22963;SDS011;11648;49.306;6.934;2023-06-22T01:03:08;11.00;;;8.23;;
22963;SDS011;11648;49.306;6.934;2023-06-22T01:05:36;11.40;;;8.43;;
22963;SDS011;11648;49.306;6.934;2023-06-22T01:08:06;9.43;;;8.47;;
22963;SDS011;11648;49.306;6.934;2023-06-22T01:16:08;9.13;;;8.00;;
22963;SDS011;11648;49.306;6.934;2023-06-22T01:18:41;9.33;;;8.03;;
22963;SDS011;11648;49.306;6.934;2023-06-22T01:21:14;9.20;;;8.20;;
22963;SDS011;11648;49.306;6.934;2023-06-22T01:23:56;9.20;;;8.07;;
22963;SDS011;11648;49.306;6.934;2023-06-22T01:26:40;9.73;;;7.90;;
22963;SDS011;11648;49.306;6.934;2023-06-22T01:29:11;9.17;;;8.00;;
22963;SDS011;11648;49.306;6.934;2023-06-22T01:31:40;9.70;;;7.83;;
22963;SDS011;11648;49.306;6.934;2023-06-22T01:34:11;10.50;;;8.43;;
22963;SDS011;11648;49.306;6.934;2023-06-22T01:36:39;8.67;;;7.50;;
22963;SDS011;11648;49.306;6.934;2023-06-22T01:39:07;11.07;;;8.73;;
22963;SDS011;11648;49.306;6.934;2023-06-22T01:41:35;9.17;;;7.70;;
22963;SDS011;11648;49.306;6.934;2023-06-22T01:44:07;10.70;;;8.73;;
22963;SDS011;11648;49.306;6.934;2023-06-22T01:46:36;10.70;;;8.70;;
22963;SDS011;11648;49.306;6.934;2023-06-22T01:49:03;10.87;;;8.30;;
22963;SDS011;11648;49.306;6.934;2023-06-22T01:51:31;10.73;;;8.30;;
22963;SDS011;11648;49.306;6.934;2023-06-22T01:53:59;12.60;;;8.50;;
22963;SDS011;11648;49.306;6.934;2023-06-22T01:56:26;11.90;;;8.53;;
22963;SDS011;11648;49.306;6.934;2023-06-22T02:01:31;8.77;;;7.87;;
22963;SDS011;11648;49.306;6.934;2023-06-22T02:04:03;9.73;;;8.03;;
22963;SDS011;11648;49.306;6.934;2023-06-22T02:06:39;9.70;;;7.63;;
22963;SDS011;11648;49.306;6.934;2023-06-22T02:09:12;9.77;;;8.20;;
22963;SDS011;11648;49.306;6.934;2023-06-22T02:11:43;9.90;;;7.47;;
22963;SDS011;11648;49.306;6.934;2023-06-22T02:14:12;9.87;;;7.53;;
22963;SDS011;11648;49.306;6.934;2023-06-22T02:16:40;8.83;;;7.93;;
22963;SDS011;11648;49.306;6.934;2023-06-22T02:19:08;9.77;;;8.00;;
22963;SDS011;11648;49.306;6.934;2023-06-22T02:21:35;9.07;;;8.13;;
22963;SDS011;11648;49.306;6.934;2023-06-22T02:24:02;10.43;;;7.27;;
22963;SDS011;11648;49.306;6.934;2023-06-22T02:26:29;7.80;;;7.00;;
22963;SDS011;11648;49.306;6.934;2023-06-22T02:28:56;9.07;;;7.17;;
22963;SDS011;11648;49.306;6.934;2023-06-22T02:31:23;8.10;;;7.27;;
22963;SDS011;11648;49.306;6.934;2023-06-22T02:33:57;10.80;;;7.70;;
22963;SDS011;11648;49.306;6.934;2023-06-22T02:36:25;8.67;;;7.77;;
22963;SDS011;11648;49.306;6.934;2023-06-22T02:38:54;8.40;;;7.47;;
22963;SDS011;11648;49.306;6.934;2023-06-22T02:41:27;8.30;;;7.37;;
22963;SDS011;11648;49.306;6.934;2023-06-22T02:43:55;11.57;;;7.70;;
22963;SDS011;11648;49.306;6.934;2023-06-22T02:46:22;9.47;;;7.90;;
22963;SDS011;11648;49.306;6.934;2023-06-22T02:48:49;10.13;;;8.37;;
22963;SDS011;11648;49.306;6.934;2023-06-22T02:51:16;8.70;;;7.80;;
22963;SDS011;11648;49.306;6.934;2023-06-22T02:53:43;9.20;;;7.93;;
22963;SDS011;11648;49.306;6.934;2023-06-22T02:56:14;12.10;;;8.07;;
22963;SDS011;11648;49.306;6.934;2023-06-22T02:58:42;9.73;;;8.07;;
22963;SDS011;11648;49.306;6.934;2023-06-22T03:01:10;8.07;;;7.27;;
22963;SDS011;11648;49.306;6.934;2023-06-22T03:03:41;9.10;;;8.03;;
22963;SDS011;11648;49.306;6.934;2023-06-22T03:06:08;9.63;;;8.30;;
22963;SDS011;11648;49.306;6.934;2023-06-22T03:08:37;9.57;;;7.43;;
22963;SDS011;11648;49.306;6.934;2023-06-22T03:11:03;9.20;;;7.63;;
22963;SDS011;11648;49.306;6.934;2023-06-22T03:13:30;11.07;;;7.97;;
22963;SDS011;11648;49.306;6.934;2023-06-22T03:15:57;9.13;;;8.17;;
22963;SDS011;11648;49.306;6.934;2023-06-22T03:18:23;10.47;;;7.80;;
22963;SDS011;11648;49.306;6.934;2023-06-22T03:20:50;8.57;;;7.67;;
22963;SDS011;11648;49.306;6.934;2023-06-22T03:23:17;9.77;;;8.23;;
22963;SDS011;11648;49.306;6.934;2023-06-22T03:25:44;8.93;;;8.03;;
22963;SDS011;11648;49.306;6.934;2023-06-22T03:28:11;8.70;;;7.80;;
22963;SDS011;11648;49.306;6.934;2023-06-22T03:30:38;12.80;;;7.47;;
22963;SDS011;11648;49.306;6.934;2023-06-22T03:33:04;10.40;;;8.37;;
22963;SDS011;11648;49.306;6.934;2023-06-22T03:35:33;9.37;;;7.20;;
22963;SDS011;11648;49.306;6.934;2023-06-22T03:37:59;8.90;;;7.63;;
22963;SDS011;11648;49.306;6.934;2023-06-22T03:40:26;7.93;;;6.97;;
22963;SDS011;11648;49.306;6.934;2023-06-22T03:42:53;9.70;;;7.87;;
22963;SDS011;11648;49.306;6.934;2023-06-22T03:45:20;8.70;;;7.77;;
22963;SDS011;11648;49.306;6.934;2023-06-22T03:47:47;9.63;;;7.63;;
22963;SDS011;11648;49.306;6.934;2023-06-22T03:50:15;11.60;;;8.20;;
22963;SDS011;11648;49.306;6.934;2023-06-22T03:52:41;9.87;;;8.27;;
22963;SDS011;11648;49.306;6.934;2023-06-22T03:55:08;9.27;;;8.20;;
22963;SDS011;11648;49.306;6.934;2023-06-22T03:57:36;9.87;;;7.57;;
22963;SDS011;11648;49.306;6.934;2023-06-22T04:00:03;11.13;;;8.30;;
22963;SDS011;11648;49.306;6.934;2023-06-22T04:02:40;9.43;;;8.40;;
22963;SDS011;11648;49.306;6.934;2023-06-22T04:05:10;8.63;;;7.43;;
22963;SDS011;11648;49.306;6.934;2023-06-22T04:07:37;10.87;;;8.60;;
22963;SDS011;11648;49.306;6.934;2023-06-22T04:10:04;11.80;;;9.40;;
22963;SDS011;11648;49.306;6.934;2023-06-22T04:12:32;8.93;;;8.00;;
22963;SDS011;11648;49.306;6.934;2023-06-22T04:14:58;11.30;;;8.90;;
22963;SDS011;11648;49.306;6.934;2023-06-22T04:17:25;14.27;;;9.30;;
22963;SDS011;11648;49.306;6.934;2023-06-22T04:19:52;12.77;;;8.53;;
22963;SDS011;11648;49.306;6.934;2023-06-22T04:22:19;11.77;;;8.77;;
22963;SDS011;11648;49.306;6.934;2023-06-22T04:24:45;10.50;;;9.13;;
22963;SDS011;11648;49.306;6.934;2023-06-22T04:27:12;8.60;;;7.73;;
22963;SDS011;11648;49.306;6.934;2023-06-22T04:29:39;9.50;;;8.00;;
22963;SDS011;11648;49.306;6.934;2023-06-22T04:32:15;12.07;;;8.50;;
22963;SDS011;11648;49.306;6.934;2023-06-22T04:34:42;9.53;;;8.53;;
22963;SDS011;11648;49.306;6.934;2023-06-22T04:37:09;9.07;;;8.17;;
22963;SDS011;11648;49.306;6.934;2023-06-22T04:39:39;12.33;;;8.27;;
22963;SDS011;11648;49.306;6.934;2023-06-22T04:42:06;8.77;;;7.70;;
22963;SDS011;11648;49.306;6.934;2023-06-22T04:44:33;9.67;;;8.00;;
22963;SDS011;11648;49.306;6.934;2023-06-22T04:47:00;11.10;;;8.47;;
22963;SDS011;11648;49.306;6.934;2023-06-22T04:49:30;10.70;;;8.50;;
22963;SDS011;11648;49.306;6.934;2023-06-22T04:52:03;14.60;;;8.63;;
22963;SDS011;11648;49.306;6.934;2023-06-22T04:54:31;10.43;;;7.97;;
22963;SDS011;11648;49.306;6.934;2023-06-22T04:57:05;9.13;;;8.20;;
22963;SDS011;11648;49.306;6.934;2023-06-22T04:59:37;11.50;;;8.40;;
22963;SDS011;11648;49.306;6.934;2023-06-22T05:02:05;11.00;;;8.17;;
22963;SDS011;11648;49.306;6.934;2023-06-22T05:04:32;10.43;;;7.83;;
22963;SDS011;11648;49.306;6.934;2023-06-22T05:06:59;11.63;;;7.93;;
22963;SDS011;11648;49.306;6.934;2023-06-22T05:09:27;10.13;;;8.00;;
22963;SDS011;11648;49.306;6.934;2023-06-22T05:11:54;8.90;;;7.17;;
22963;SDS011;11648;49.306;6.934;2023-06-22T05:14:20;7.93;;;7.13;;
22963;SDS011;11648;49.306;6.934;2023-06-22T05:16:48;8.17;;;7.13;;
22963;SDS011;11648;49.306;6.934;2023-06-22T05:19:15;11.37;;;7.90;;
22963;SDS011;11648;49.306;6.934;2023-06-22T05:21:42;12.60;;;8.30;;
22963;SDS011;11648;49.306;6.934;2023-06-22T05:24:08;8.43;;;7.20;;
22963;SDS011;11648;49.306;6.934;2023-06-22T05:26:35;8.17;;;6.87;;
22963;SDS011;11648;49.306;6.934;2023-06-22T05:29:02;8.40;;;6.80;;
22963;SDS011;11648;49.306;6.934;2023-06-22T05:31:29;7.20;;;6.50;;
22963;SDS011;11648;49.306;6.934;2023-06-22T05:33:56;12.23;;;7.07;;
22963;SDS011;11648;49.306;6.934;2023-06-22T05:36:23;8.30;;;7.27;;
22963;SDS011;11648;49.306;6.934;2023-06-22T05:38:53;7.53;;;6.47;;
22963;SDS011;11648;49.306;6.934;2023-06-22T05:41:20;8.80;;;6.93;;
22963;SDS011;11648;49.306;6.934;2023-06-22T05:43:47;11.00;;;7.10;;
22963;SDS011;11648;49.306;6.934;2023-06-22T05:46:13;9.13;;;6.70;;
22963;SDS011;11648;49.306;6.934;2023-06-22T05:48:40;8.93;;;6.67;;
22963;SDS011;11648;49.306;6.934;2023-06-22T05:51:07;8.03;;;6.90;;
22963;SDS011;11648;49.306;6.934;2023-06-22T05:53:34;9.73;;;6.90;;
22963;SDS011;11648;49.306;6.934;2023-06-22T05:56:00;8.20;;;6.67;;
22963;SDS011;11648;49.306;6.934;2023-06-22T05:58:27;9.03;;;7.07;;
22963;SDS011;11648;49.306;6.934;2023-06-22T06:00:54;8.50;;;7.10;;
22963;SDS011;11648;49.306;6.934;2023-06-22T06:03:21;8.07;;;7.23;;
22963;SDS011;11648;49.306;6.934;2023-06-22T06:05:47;8.00;;;6.80;;
22963;SDS011;11648;49.306;6.934;2023-06-22T06:08:14;10.43;;;6.90;;
22963;SDS011;11648;49.306;6.934;2023-06-22T06:10:41;8.17;;;7.30;;
22963;SDS011;11648;49.306;6.934;2023-06-22T06:13:08;8.93;;;7.43;;
22963;SDS011;11648;49.306;6.934;2023-06-22T06:15:34;9.60;;;7.17;;
22963;SDS011;11648;49.306;6.934;2023-06-22T06:18:01;11.80;;;7.20;;
22963;SDS011;11648;49.306;6.934;2023-06-22T06:20:31;10.13;;;8.07;;
22963;SDS011;11648;49.306;6.934;2023-06-22T06:22:59;8.37;;;6.90;;
22963;SDS011;11648;49.306;6.934;2023-06-22T06:25:26;9.57;;;7.10;;
22963;SDS011;11648;49.306;6.934;2023-06-22T06:27:53;7.77;;;6.97;;
22963;SDS011;11648;49.306;6.934;2023-06-22T06:30:21;7.73;;;6.63;;
22963;SDS011;11648;49.306;6.934;2023-06-22T06:32:49;10.13;;;6.73;;
22963;SDS011;11648;49.306;6.934;2023-06-22T06:35:17;10.00;;;7.27;;
22963;SDS011;11648;49.306;6.934;2023-06-22T06:37:44;7.80;;;6.53;;
22963;SDS011;11648;49.306;6.934;2023-06-22T06:40:12;9.43;;;7.30;;
22963;SDS011;11648;49.306;6.934;2023-06-22T06:42:42;7.30;;;6.33;;
22963;SDS011;11648;49.306;6.934;2023-06-22T06:45:12;7.23;;;6.10;;
22963;SDS011;11648;49.306;6.934;2023-06-22T06:47:39;8.83;;;6.33;;
22963;SDS011;11648;49.306;6.934;2023-06-22T06:50:06;7.00;;;6.30;;
22963;SDS011;11648;49.306;6.934;2023-06-22T06:52:34;9.63;;;6.20;;
22963;SDS011;11648;49.306;6.934;2023-06-22T06:55:04;7.97;;;6.77;;
22963;SDS011;11648;49.306;6.934;2023-06-22T06:57:35;10.00;;;6.23;;
22963;SDS011;11648;49.306;6.934;2023-06-22T07:00:05;7.30;;;6.17;;
22963;SDS011;11648;49.306;6.934;2023-06-22T07:02:45;7.30;;;6.60;;
22963;SDS011;11648;49.306;6.934;2023-06-22T07:05:14;6.83;;;5.90;;
22963;SDS011;11648;49.306;6.934;2023-06-22T07:07:40;7.53;;;5.80;;
22963;SDS011;11648;49.306;6.934;2023-06-22T07:10:08;7.85;;;5.57;;
22963;SDS011;11648;49.306;6.934;2023-06-22T07:12:35;7.53;;;6.60;;
22963;SDS011;11648;49.306;6.934;2023-06-22T07:15:06;6.50;;;5.75;;
22963;SDS011;11648;49.306;6.934;2023-06-22T07:17:35;7.37;;;5.67;;
22963;SDS011;11648;49.306;6.934;2023-06-22T07:20:03;7.47;;;6.30;;
22963;SDS011;11648;49.306;6.934;2023-06-22T07:22:35;7.43;;;6.10;;
22963;SDS011;11648;49.306;6.934;2023-06-22T07:25:02;8.07;;;6.20;;
22963;SDS011;11648;49.306;6.934;2023-06-22T07:27:36;7.37;;;5.90;;
22963;SDS011;11648;49.306;6.934;2023-06-22T07:30:04;8.33;;;6.10;;
22963;SDS011;11648;49.306;6.934;2023-06-22T07:32:32;7.20;;;5.73;;
22963;SDS011;11648;49.306;6.934;2023-06-22T07:34:58;7.10;;;5.38;;
22963;SDS011;11648;49.306;6.934;2023-06-22T07:37:25;6.40;;;5.50;;
22963;SDS011;11648;49.306;6.934;2023-06-22T07:39:54;7.43;;;6.30;;
22963;SDS011;11648;49.306;6.934;2023-06-22T07:42:25;7.78;;;5.75;;
22963;SDS011;11648;49.306;6.934;2023-06-22T07:44:52;7.55;;;5.93;;
22963;SDS011;11648;49.306;6.934;2023-06-22T07:47:19;6.47;;;5.67;;
22963;SDS011;11648;49.306;6.934;2023-06-22T07:49:46;6.17;;;5.53;;
22963;SDS011;11648;49.306;6.934;2023-06-22T07:52:13;6.30;;;5.50;;
22963;SDS011;11648;49.306;6.934;2023-06-22T07:54:40;6.43;;;5.73;;
22963;SDS011;11648;49.306;6.934;2023-06-22T07:57:06;6.87;;;6.03;;
22963;SDS011;11648;49.306;6.934;2023-06-22T07:59:33;7.73;;;6.40;;
22963;SDS011;11648;49.306;6.934;2023-06-22T08:02:00;8.20;;;6.13;;
22963;SDS011;11648;49.306;6.934;2023-06-22T08:04:28;8.93;;;6.50;;
22963;SDS011;11648;49.306;6.934;2023-06-22T08:06:57;8.37;;;6.57;;
22963;SDS011;11648;49.306;6.934;2023-06-22T08:09:24;10.07;;;7.07;;
22963;SDS011;11648;49.306;6.934;2023-06-22T08:11:50;8.07;;;7.07;;
22963;SDS011;11648;49.306;6.934;2023-06-22T08:14:17;9.43;;;7.03;;
22963;SDS011;11648;49.306;6.934;2023-06-22T08:16:44;8.83;;;7.70;;
22963;SDS011;11648;49.306;6.934;2023-06-22T08:19:10;8.83;;;7.23;;
22963;SDS011;11648;49.306;6.934;2023-06-22T08:21:37;9.13;;;6.90;;
22963;SDS011;11648;49.306;6.934;2023-06-22T08:24:04;9.33;;;7.50;;
22963;SDS011;11648;49.306;6.934;2023-06-22T08:26:31;8.70;;;7.07;;
22963;SDS011;11648;49.306;6.934;2023-06-22T08:29:03;11.60;;;7.23;;
22963;SDS011;11648;49.306;6.934;2023-06-22T08:31:30;8.97;;;7.70;;
22963;SDS011;11648;49.306;6.934;2023-06-22T08:33:59;10.17;;;8.03;;
22963;SDS011;11648;49.306;6.934;2023-06-22T08:36:26;8.90;;;6.53;;
22963;SDS011;11648;49.306;6.934;2023-06-22T08:38:55;10.93;;;7.30;;
22963;SDS011;11648;49.306;6.934;2023-06-22T08:41:29;8.33;;;7.47;;
22963;SDS011;11648;49.306;6.934;2023-06-22T08:43:56;12.02;;;7.55;;
22963;SDS011;11648;49.306;6.934;2023-06-22T08:46:23;8.82;;;7.22;;
22963;SDS011;11648;49.306;6.934;2023-06-22T08:48:56;7.82;;;7.03;;
22963;SDS011;11648;49.306;6.934;2023-06-22T08:51:24;8.98;;;7.00;;
22963;SDS011;11648;49.306;6.934;2023-06-22T08:53:51;8.98;;;6.47;;
22963;SDS011;11648;49.306;6.934;2023-06-22T08:56:17;9.23;;;6.75;;
22963;SDS011;11648;49.306;6.934;2023-06-22T08:58:45;8.50;;;7.20;;
22963;SDS011;11648;49.306;6.934;2023-06-22T09:01:12;8.45;;;7.55;;
22963;SDS011;11648;49.306;6.934;2023-06-22T09:03:38;7.32;;;6.60;;
22963;SDS011;11648;49.306;6.934;2023-06-22T09:06:05;7.90;;;6.72;;
22963;SDS011;11648;49.306;6.934;2023-06-22T09:08:32;8.45;;;6.57;;
22963;SDS011;11648;49.306;6.934;2023-06-22T09:10:59;8.63;;;7.15;;
22963;SDS011;11648;49.306;6.934;2023-06-22T09:13:26;10.77;;;6.97;;
22963;SDS011;11648;49.306;6.934;2023-06-22T09:15:52;7.72;;;6.72;;
22963;SDS011;11648;49.306;6.934;2023-06-22T09:18:19;9.20;;;6.90;;
22963;SDS011;11648;49.306;6.934;2023-06-22T09:20:46;9.43;;;6.80;;
22963;SDS011;11648;49.306;6.934;2023-06-22T09:23:13;8.48;;;6.60;;
22963;SDS011;11648;49.306;6.934;2023-06-22T09:25:41;8.13;;;6.15;;
22963;SDS011;11648;49.306;6.934;2023-06-22T09:28:08;8.25;;;6.07;;
22963;SDS011;11648;49.306;6.934;2023-06-22T09:30:35;7.07;;;5.47;;
22963;SDS011;11648;49.306;6.934;2023-06-22T09:33:02;6.80;;;5.55;;
22963;SDS011;11648;49.306;6.934;2023-06-22T09:35:29;8.40;;;5.75;;
22963;SDS011;11648;49.306;6.934;2023-06-22T09:37:55;8.68;;;5.22;;
22963;SDS011;11648;49.306;6.934;2023-06-22T09:40:22;7.10;;;5.35;;
22963;SDS011;11648;49.306;6.934;2023-06-22T09:42:49;6.57;;;5.25;;
22963;SDS011;11648;49.306;6.934;2023-06-22T09:45:16;7.90;;;5.65;;
22963;SDS011;11648;49.306;6.934;2023-06-22T09:47:43;9.45;;;5.53;;
22963;SDS011;11648;49.306;6.934;2023-06-22T09:50:09;8.90;;;5.32;;
22963;SDS011;11648;49.306;6.934;2023-06-22T09:52:36;7.30;;;5.50;;
22963;SDS011;11648;49.306;6.934;2023-06-22T09:55:06;8.75;;;5.13;;
22963;SDS011;11648;49.306;6.934;2023-06-22T09:57:34;7.32;;;5.30;;
22963;SDS011;11648;49.306;6.934;2023-06-22T10:00:00;11.70;;;6.07;;
22963;SDS011;11648;49.306;6.934;2023-06-22T10:02:30;7.95;;;5.10;;
22963;SDS011;11648;49.306;6.934;2023-06-22T10:04:57;9.20;;;5.88;;
22963;SDS011;11648;49.306;6.934;2023-06-22T10:07:24;8.13;;;5.40;;
22963;SDS011;11648;49.306;6.934;2023-06-22T10:09:51;11.05;;;5.60;;
22963;SDS011;11648;49.306;6.934;2023-06-22T10:12:17;9.38;;;5.05;;
22963;SDS011;11648;49.306;6.934;2023-06-22T10:14:44;6.05;;;4.88;;
22963;SDS011;11648;49.306;6.934;2023-06-22T10:17:11;8.73;;;5.10;;
22963;SDS011;11648;49.306;6.934;2023-06-22T10:19:38;9.35;;;5.30;;
22963;SDS011;11648;49.306;6.934;2023-06-22T10:22:05;8.40;;;5.38;;
22963;SDS011;11648;49.306;6.934;2023-06-22T10:24:32;10.02;;;5.03;;
22963;SDS011;11648;49.306;6.934;2023-06-22T10:26:58;10.48;;;5.05;;
22963;SDS011;11648;49.306;6.934;2023-06-22T10:29:25;10.23;;;5.72;;
22963;SDS011;11648;49.306;6.934;2023-06-22T10:31:52;9.77;;;4.95;;
22963;SDS011;11648;49.306;6.934;2023-06-22T10:34:19;8.52;;;4.93;;
22963;SDS011;11648;49.306;6.934;2023-06-22T10:36:45;5.78;;;5.18;;
22963;SDS011;11648;49.306;6.934;2023-06-22T10:39:14;8.82;;;5.00;;
22963;SDS011;11648;49.306;6.934;2023-06-22T10:41:41;8.60;;;5.32;;
22963;SDS011;11648;49.306;6.934;2023-06-22T10:44:08;10.07;;;4.95;;
22963;SDS011;11648;49.306;6.934;2023-06-22T10:46:35;7.30;;;5.32;;
22963;SDS011;11648;49.306;6.934;2023-06-22T10:49:01;7.88;;;5.10;;
22963;SDS011;11648;49.306;6.934;2023-06-22T10:51:28;6.95;;;5.15;;
22963;SDS011;11648;49.306;6.934;2023-06-22T10:53:55;10.15;;;5.47;;
22963;SDS011;11648;49.306;6.934;2023-06-22T10:56:22;8.07;;;5.50;;
22963;SDS011;11648;49.306;6.934;2023-06-22T10:58:49;7.25;;;5.05;;
22963;SDS011;11648;49.306;6.934;2023-06-22T11:01:16;7.60;;;4.85;;
22963;SDS011;11648;49.306;6.934;2023-06-22T11:04:00;8.00;;;5.00;;
22963;SDS011;11648;49.306;6.934;2023-06-22T11:06:28;8.13;;;5.15;;
22963;SDS011;11648;49.306;6.934;2023-06-22T11:08:54;13.60;;;5.20;;
22963;SDS011;11648;49.306;6.934;2023-06-22T11:11:32;8.38;;;5.05;;
22963;SDS011;11648;49.306;6.934;2023-06-22T11:13:59;11.85;;;5.20;;
22963;SDS011;11648;49.306;6.934;2023-06-22T11:16:26;10.07;;;5.00;;
22963;SDS011;11648;49.306;6.934;2023-06-22T11:18:53;7.85;;;4.70;;
22963;SDS011;11648;49.306;6.934;2023-06-22T11:21:20;8.68;;;4.68;;
22963;SDS011;11648;49.306;6.934;2023-06-22T11:23:47;7.63;;;4.68;;
22963;SDS011;11648;49.306;6.934;2023-06-22T11:26:14;7.97;;;5.03;;
22963;SDS011;11648;49.306;6.934;2023-06-22T11:28:41;9.50;;;5.20;;
22963;SDS011;11648;49.306;6.934;2023-06-22T11:31:07;9.05;;;4.85;;
22963;SDS011;11648;49.306;6.934;2023-06-22T11:33:51;10.27;;;5.63;;
22963;SDS011;11648;49.306;6.934;2023-06-22T11:36:17;9.70;;;5.43;;
22963;SDS011;11648;49.306;6.934;2023-06-22T11:38:45;8.55;;;5.07;;
22963;SDS011;11648;49.306;6.934;2023-06-22T11:41:12;8.70;;;5.30;;
22963;SDS011;11648;49.306;6.934;2023-06-22T11:43:38;10.20;;;5.20;;
22963;SDS011;11648;49.306;6.934;2023-06-22T11:46:05;10.05;;;4.70;;
22963;SDS011;11648;49.306;6.934;2023-06-22T11:48:32;11.60;;;4.97;;
22963;SDS011;11648;49.306;6.934;2023-06-22T11:50:59;10.27;;;5.25;;
22963;SDS011;11648;49.306;6.934;2023-06-22T11:53:26;9.80;;;5.15;;
22963;SDS011;11648;49.306;6.934;2023-06-22T11:55:53;12.77;;;4.90;;
22963;SDS011;11648;49.306;6.934;2023-06-22T11:58:21;10.85;;;5.43;;
22963;SDS011;11648;49.306;6.934;2023-06-22T12:00:48;9.98;;;4.55;;
22963;SDS011;11648;49.306;6.934;2023-06-22T12:03:18;13.13;;;4.95;;
22963;SDS011;11648;49.306;6.934;2023-06-22T12:05:46;11.90;;;4.90;;
22963;SDS011;11648;49.306;6.934;2023-06-22T12:08:13;13.57;;;5.00;;
22963;SDS011;11648;49.306;6.934;2023-06-22T12:10:40;10.18;;;5.28;;
22963;SDS011;11648;49.306;6.934;2023-06-22T12:13:07;10.40;;;5.20;;
22963;SDS011;11648;49.306;6.934;2023-06-22T12:15:34;10.70;;;5.30;;
22963;SDS011;11648;49.306;6.934;2023-06-22T12:18:00;12.82;;;5.32;;
22963;SDS011;11648;49.306;6.934;2023-06-22T12:20:28;13.70;;;5.65;;
22963;SDS011;11648;49.306;6.934;2023-06-22T12:22:55;9.30;;;4.70;;
22963;SDS011;11648;49.306;6.934;2023-06-22T12:25:24;13.27;;;5.32;;
22963;SDS011;11648;49.306;6.934;2023-06-22T12:27:51;11.35;;;4.72;;
22963;SDS011;11648;49.306;6.934;2023-06-22T12:30:18;16.52;;;4.93;;
22963;SDS011;11648;49.306;6.934;2023-06-22T12:32:45;9.93;;;4.60;;
22963;SDS011;11648;49.306;6.934;2023-06-22T12:35:11;11.88;;;4.80;;
22963;SDS011;11648;49.306;6.934;2023-06-22T12:37:41;11.40;;;4.68;;
22963;SDS011;11648;49.306;6.934;2023-06-22T12:40:09;9.18;;;4.60;;
22963;SDS011;11648;49.306;6.934;2023-06-22T12:42:36;11.32;;;5.05;;
22963;SDS011;11648;49.306;6.934;2023-06-22T12:45:04;12.27;;;4.88;;
22963;SDS011;11648;49.306;6.934;2023-06-22T12:47:31;11.10;;;4.72;;
22963;SDS011;11648;49.306;6.934;2023-06-22T12:49:58;13.65;;;4.68;;
22963;SDS011;11648;49.306;6.934;2023-06-22T12:52:25;12.40;;;4.90;;
22963;SDS011;11648;49.306;6.934;2023-06-22T12:54:51;12.23;;;4.97;;
22963;SDS011;11648;49.306;6.934;2023-06-22T12:57:21;15.57;;;5.47;;
22963;SDS011;11648;49.306;6.934;2023-06-22T12:59:48;14.15;;;4.78;;
22963;SDS011;11648;49.306;6.934;2023-06-22T13:02:15;11.38;;;4.80;;
22963;SDS011;11648;49.306;6.934;2023-06-22T13:04:42;11.88;;;4.70;;
22963;SDS011;11648;49.306;6.934;2023-06-22T13:07:10;10.65;;;4.88;;
22963;SDS011;11648;49.306;6.934;2023-06-22T13:09:48;12.02;;;4.50;;
22963;SDS011;11648;49.306;6.934;2023-06-22T13:12:21;15.02;;;4.85;;
22963;SDS011;11648;49.306;6.934;2023-06-22T13:14:48;10.98;;;4.10;;
22963;SDS011;11648;49.306;6.934;2023-06-22T13:17:15;11.52;;;4.10;;
22963;SDS011;11648;49.306;6.934;2023-06-22T13:19:42;15.98;;;4.40;;
22963;SDS011;11648;49.306;6.934;2023-06-22T13:22:31;14.65;;;4.60;;
22963;SDS011;11648;49.306;6.934;2023-06-22T13:25:10;14.43;;;4.38;;
22963;SDS011;11648;49.306;6.934;2023-06-22T13:27:52;15.30;;;4.20;;
22963;SDS011;11648;49.306;6.934;2023-06-22T13:30:18;10.88;;;3.30;;
22963;SDS011;11648;49.306;6.934;2023-06-22T13:32:45;15.02;;;3.72;;
22963;SDS011;11648;49.306;6.934;2023-06-22T13:35:12;13.00;;;3.40;;
22963;SDS011;11648;49.306;6.934;2023-06-22T13:37:39;10.57;;;3.10;;
22963;SDS011;11648;49.306;6.934;2023-06-22T13:40:06;9.82;;;3.20;;
22963;SDS011;11648;49.306;6.934;2023-06-22T13:42:34;10.48;;;3.30;;
22963;SDS011;11648;49.306;6.934;2023-06-22T13:45:01;13.38;;;3.97;;
22963;SDS011;11648;49.306;6.934;2023-06-22T13:47:29;15.65;;;4.10;;
22963;SDS011;11648;49.306;6.934;2023-06-22T13:49:57;15.32;;;3.50;;
22963;SDS011;11648;49.306;6.934;2023-06-22T13:52:24;11.00;;;3.80;;
22963;SDS011;11648;49.306;6.934;2023-06-22T13:54:51;13.30;;;3.55;;
22963;SDS011;11648;49.306;6.934;2023-06-22T13:57:18;10.77;;;3.42;;
22963;SDS011;11648;49.306;6.934;2023-06-22T13:59:45;11.82;;;3.35;;
22963;SDS011;11648;49.306;6.934;2023-06-22T14:02:12;11.70;;;3.17;;
22963;SDS011;11648;49.306;6.934;2023-06-22T14:04:38;8.63;;;3.15;;
22963;SDS011;11648;49.306;6.934;2023-06-22T14:07:05;12.40;;;3.33;;
22963;SDS011;11648;49.306;6.934;2023-06-22T14:09:32;11.75;;;3.33;;
22963;SDS011;11648;49.306;6.934;2023-06-22T14:12:02;8.30;;;3.35;;
22963;SDS011;11648;49.306;6.934;2023-06-22T14:14:33;10.02;;;3.22;;
22963;SDS011;11648;49.306;6.934;2023-06-22T14:17:00;11.27;;;3.70;;
22963;SDS011;11648;49.306;6.934;2023-06-22T14:19:27;11.98;;;3.50;;
22963;SDS011;11648;49.306;6.934;2023-06-22T14:21:54;8.52;;;3.20;;
22963;SDS011;11648;49.306;6.934;2023-06-22T14:24:21;8.27;;;3.45;;
22963;SDS011;11648;49.306;6.934;2023-06-22T14:26:50;11.02;;;3.58;;
22963;SDS011;11648;49.306;6.934;2023-06-22T14:29:17;9.63;;;3.03;;
22963;SDS011;11648;49.306;6.934;2023-06-22T14:31:45;10.43;;;3.38;;
22963;SDS011;11648;49.306;6.934;2023-06-22T14:34:13;12.07;;;2.78;;
22963;SDS011;11648;49.306;6.934;2023-06-22T14:36:40;13.00;;;3.10;;
22963;SDS011;11648;49.306;6.934;2023-06-22T14:39:08;9.90;;;2.45;;
22963;SDS011;11648;49.306;6.934;2023-06-22T14:41:35;9.30;;;2.80;;
22963;SDS011;11648;49.306;6.934;2023-06-22T14:44:01;5.28;;;2.50;;
22963;SDS011;11648;49.306;6.934;2023-06-22T14:46:28;7.57;;;2.33;;
22963;SDS011;11648;49.306;6.934;2023-06-22T14:48:55;6.78;;;2.50;;
22963;SDS011;11648;49.306;6.934;2023-06-22T14:51:22;7.45;;;2.35;;
22963;SDS011;11648;49.306;6.934;2023-06-22T14:53:51;5.90;;;2.22;;
22963;SDS011;11648;49.306;6.934;2023-06-22T14:56:18;9.90;;;2.55;;